AAN191 LEBL-LSGG
Flight info
| Callsign | AAN191 |
|---|---|
| Flight time | N/A |
| Altitude | 30000 |
| Route | DALIN DCT PIVUS DCT DIBER DCT ADITA DCT MAXIR DCT LUSOL DCT BODRU DCT OKTET DCT IRMAR DCT KINES |
| Aircraft | A346/H-SDE2E3FGHIJ3J4J5M1RWXY/LB1D1 |
Departure
| Time | 2026-05-03 22:03 |
|---|---|
| Airport | Josep Tarradellas Barcelona-El Prat Airport (LEBL) |
Arrival
| Time | N/A |
|---|---|
| Airport | Geneva International Airport (LSGG) |
| Time | Latitude | Longitude | Altitude | Speed | Heading |
|---|---|---|---|---|---|
| 2026-05-03 21:23 | 41.28690 | 2.07705 | 55 ft | 0 kts | 335° |
| 2026-05-03 21:54 | 41.28690 | 2.07706 | 27 ft | 0 kts | 335° |
| 2026-05-03 21:54 | 41.28675 | 2.07714 | 26 ft | 0 kts | 335° |
| 2026-05-03 21:54 | 41.28651 | 2.07728 | 26 ft | 0 kts | 335° |
| 2026-05-03 21:54 | 41.28628 | 2.07743 | 24 ft | 0 kts | 335° |
| 2026-05-03 21:55 | 41.28616 | 2.07750 | 31 ft | 0 kts | 335° |
| 2026-05-03 21:55 | 41.28612 | 2.07752 | 31 ft | 1 kts | 335° |
| 2026-05-03 21:55 | 41.28601 | 2.07759 | 31 ft | 2 kts | 335° |
| 2026-05-03 21:55 | 41.28596 | 2.07762 | 30 ft | 0 kts | 335° |
| 2026-05-03 21:59 | 41.28616 | 2.07736 | 32 ft | 7 kts | 298° |
| 2026-05-03 21:59 | 41.28608 | 2.07682 | 26 ft | 7 kts | 239° |
| 2026-05-03 21:59 | 41.28574 | 2.07607 | 26 ft | 11 kts | 239° |
| 2026-05-03 21:59 | 41.28530 | 2.07504 | 28 ft | 14 kts | 243° |
| 2026-05-03 22:00 | 41.28464 | 2.07415 | 26 ft | 15 kts | 199° |
| 2026-05-03 22:00 | 41.28361 | 2.07350 | 28 ft | 17 kts | 194° |
| 2026-05-03 22:00 | 41.28251 | 2.07409 | 26 ft | 19 kts | 117° |
| 2026-05-03 22:00 | 41.28250 | 2.07470 | 27 ft | 0 kts | 76° |
| 2026-05-03 22:01 | 41.28252 | 2.07480 | 27 ft | 2 kts | 76° |
| 2026-05-03 22:01 | 41.28256 | 2.07505 | 27 ft | 4 kts | 76° |
| 2026-05-03 22:01 | 41.28264 | 2.07542 | 28 ft | 5 kts | 76° |
| 2026-05-03 22:01 | 41.28275 | 2.07596 | 28 ft | 7 kts | 67° |
| 2026-05-03 22:02 | 41.28300 | 2.07668 | 28 ft | 10 kts | 64° |
| 2026-05-03 22:02 | 41.28345 | 2.07792 | 28 ft | 34 kts | 64° |
| 2026-05-03 22:02 | 41.28575 | 2.08438 | 29 ft | 118 kts | 65° |
| 2026-05-03 22:02 | 41.29019 | 2.09731 | 31 ft | 185 kts | 65° |
| 2026-05-03 22:03 | 41.29568 | 2.11397 | 669 ft | 199 kts | 65° |
| 2026-05-03 22:03 | 41.29908 | 2.13168 | 1652 ft | 201 kts | 89° |
| 2026-05-03 22:03 | 41.29733 | 2.14994 | 2586 ft | 199 kts | 97° |
| 2026-05-03 22:03 | 41.29655 | 2.16901 | 3161 ft | 212 kts | 93° |
| 2026-05-03 22:04 | 41.29577 | 2.18901 | 3812 ft | 219 kts | 97° |
| 2026-05-03 22:04 | 41.29374 | 2.20931 | 4529 ft | 222 kts | 103° |
| 2026-05-03 22:04 | 41.29041 | 2.22955 | 5253 ft | 225 kts | 106° |
| 2026-05-03 22:04 | 41.28673 | 2.24969 | 5945 ft | 229 kts | 106° |
| 2026-05-03 22:05 | 41.28280 | 2.27039 | 6609 ft | 233 kts | 107° |
| 2026-05-03 22:05 | 41.27873 | 2.29153 | 7264 ft | 237 kts | 107° |
| 2026-05-03 22:05 | 41.27507 | 2.31306 | 7965 ft | 240 kts | 102° |
| 2026-05-03 22:05 | 41.27245 | 2.33558 | 8447 ft | 253 kts | 100° |
| 2026-05-03 22:06 | 41.26988 | 2.35968 | 8798 ft | 273 kts | 100° |
| 2026-05-03 22:06 | 41.26718 | 2.38556 | 9179 ft | 292 kts | 99° |
| 2026-05-03 22:06 | 41.26431 | 2.41316 | 9720 ft | 303 kts | 99° |
| 2026-05-03 22:06 | 41.26138 | 2.44116 | 10401 ft | 308 kts | 100° |
| 2026-05-03 22:07 | 41.25832 | 2.47019 | 10849 ft | 323 kts | 100° |
| 2026-05-03 22:07 | 41.25507 | 2.50063 | 11159 ft | 341 kts | 100° |
| 2026-05-03 22:07 | 41.25183 | 2.53253 | 11628 ft | 352 kts | 96° |
| 2026-05-03 22:07 | 41.25361 | 2.56536 | 12262 ft | 360 kts | 77° |
| 2026-05-03 22:08 | 41.26331 | 2.59671 | 12684 ft | 377 kts | 58° |
| 2026-05-03 22:08 | 41.27860 | 2.62603 | 13050 ft | 393 kts | 53° |
| 2026-05-03 22:08 | 41.29542 | 2.65520 | 13368 ft | 410 kts | 48° |
| 2026-05-03 22:08 | 41.31685 | 2.68139 | 13886 ft | 419 kts | 34° |
| 2026-05-03 22:09 | 41.34235 | 2.70006 | 14568 ft | 419 kts | 20° |
| 2026-05-03 22:09 | 41.36974 | 2.71356 | 15295 ft | 421 kts | 17° |
| 2026-05-03 22:09 | 41.39762 | 2.72632 | 15940 ft | 426 kts | 16° |
| 2026-05-03 22:10 | 41.45430 | 2.75294 | 17229 ft | 437 kts | 17° |
| 2026-05-03 22:10 | 41.48285 | 2.76756 | 17858 ft | 444 kts | 23° |
| 2026-05-03 22:10 | 41.50880 | 2.79033 | 18429 ft | 451 kts | 41° |
| 2026-05-03 22:10 | 41.52942 | 2.82216 | 18995 ft | 455 kts | 58° |
| 2026-05-03 22:11 | 41.54505 | 2.85908 | 19638 ft | 457 kts | 63° |
| 2026-05-03 22:11 | 41.55957 | 2.89646 | 20220 ft | 460 kts | 64° |
| 2026-05-03 22:11 | 41.57451 | 2.93508 | 20786 ft | 464 kts | 63° |
| 2026-05-03 22:11 | 41.58943 | 2.97298 | 21361 ft | 468 kts | 63° |
| 2026-05-03 22:12 | 41.60484 | 3.01154 | 21941 ft | 471 kts | 63° |
| 2026-05-03 22:12 | 41.62042 | 3.05018 | 22518 ft | 474 kts | 62° |
| 2026-05-03 22:12 | 41.63621 | 3.08921 | 23049 ft | 478 kts | 62° |
| 2026-05-03 22:12 | 41.65215 | 3.12854 | 23585 ft | 482 kts | 62° |
| 2026-05-03 22:13 | 41.66819 | 3.16821 | 24045 ft | 486 kts | 62° |
| 2026-05-03 22:13 | 41.68365 | 3.20879 | 24504 ft | 488 kts | 65° |
| 2026-05-03 22:13 | 41.69784 | 3.25011 | 24985 ft | 490 kts | 67° |
| 2026-05-03 22:13 | 41.71180 | 3.29199 | 25464 ft | 493 kts | 67° |
| 2026-05-03 22:14 | 41.72556 | 3.33358 | 25930 ft | 495 kts | 68° |
| 2026-05-03 22:14 | 41.73961 | 3.37595 | 26400 ft | 498 kts | 68° |
| 2026-05-03 22:14 | 41.75377 | 3.41857 | 26837 ft | 501 kts | 68° |
| 2026-05-03 22:14 | 41.76797 | 3.46132 | 27412 ft | 500 kts | 68° |
| 2026-05-03 22:15 | 41.78206 | 3.50373 | 28123 ft | 497 kts | 68° |
| 2026-05-03 22:15 | 41.79610 | 3.54604 | 28810 ft | 495 kts | 68° |
| 2026-05-03 22:15 | 41.81012 | 3.58834 | 29351 ft | 496 kts | 68° |